sensor_id;sensor_type;location;lat;lon;timestamp;temperature;humidity
48162;DHT22;33950;48.154;16.316;2022-09-09T00:00:13;19.20;94.20
48162;DHT22;33950;48.154;16.316;2022-09-09T00:03:05;19.20;93.80
48162;DHT22;33950;48.154;16.316;2022-09-09T00:06:01;19.10;93.70
48162;DHT22;33950;48.154;16.316;2022-09-09T00:09:00;19.00;93.70
48162;DHT22;33950;48.154;16.316;2022-09-09T00:11:52;18.90;93.70
48162;DHT22;33950;48.154;16.316;2022-09-09T00:14:45;18.80;94.00
48162;DHT22;33950;48.154;16.316;2022-09-09T00:17:38;18.70;93.90
48162;DHT22;33950;48.154;16.316;2022-09-09T00:20:31;18.50;93.90
48162;DHT22;33950;48.154;16.316;2022-09-09T00:23:24;18.50;94.10
48162;DHT22;33950;48.154;16.316;2022-09-09T00:26:16;18.50;94.00
48162;DHT22;33950;48.154;16.316;2022-09-09T00:29:10;18.40;94.10
48162;DHT22;33950;48.154;16.316;2022-09-09T00:32:05;18.30;94.20
48162;DHT22;33950;48.154;16.316;2022-09-09T00:34:58;18.30;94.30
48162;DHT22;33950;48.154;16.316;2022-09-09T00:37:46;18.30;94.30
48162;DHT22;33950;48.154;16.316;2022-09-09T00:40:39;18.30;94.20
48162;DHT22;33950;48.154;16.316;2022-09-09T00:43:28;18.20;94.20
48162;DHT22;33950;48.154;16.316;2022-09-09T00:46:29;18.20;94.30
48162;DHT22;33950;48.154;16.316;2022-09-09T00:49:26;18.10;94.40
48162;DHT22;33950;48.154;16.316;2022-09-09T00:52:24;18.00;94.40
48162;DHT22;33950;48.154;16.316;2022-09-09T00:55:16;18.00;94.60
48162;DHT22;33950;48.154;16.316;2022-09-09T00:58:07;18.00;94.60
48162;DHT22;33950;48.154;16.316;2022-09-09T01:00:57;18.00;94.60
48162;DHT22;33950;48.154;16.316;2022-09-09T01:03:52;18.00;94.60
48162;DHT22;33950;48.154;16.316;2022-09-09T01:06:41;17.90;94.70
48162;DHT22;33950;48.154;16.316;2022-09-09T01:09:33;17.90;94.70
48162;DHT22;33950;48.154;16.316;2022-09-09T01:12:27;17.90;94.80
48162;DHT22;33950;48.154;16.316;2022-09-09T01:15:19;18.00;94.70
48162;DHT22;33950;48.154;16.316;2022-09-09T01:18:10;18.00;94.60
48162;DHT22;33950;48.154;16.316;2022-09-09T01:21:04;18.00;94.50
48162;DHT22;33950;48.154;16.316;2022-09-09T01:24:06;18.00;94.50
48162;DHT22;33950;48.154;16.316;2022-09-09T01:26:59;18.10;94.50
48162;DHT22;33950;48.154;16.316;2022-09-09T01:29:46;18.10;94.10
48162;DHT22;33950;48.154;16.316;2022-09-09T01:35:28;18.00;93.90
48162;DHT22;33950;48.154;16.316;2022-09-09T01:38:17;17.90;94.10
48162;DHT22;33950;48.154;16.316;2022-09-09T01:41:04;18.00;94.00
48162;DHT22;33950;48.154;16.316;2022-09-09T01:43:53;18.00;94.00
48162;DHT22;33950;48.154;16.316;2022-09-09T01:46:40;18.10;94.00
48162;DHT22;33950;48.154;16.316;2022-09-09T01:49:26;18.00;94.10
48162;DHT22;33950;48.154;16.316;2022-09-09T01:52:12;18.00;94.10
48162;DHT22;33950;48.154;16.316;2022-09-09T01:54:58;18.00;94.00
48162;DHT22;33950;48.154;16.316;2022-09-09T01:57:50;18.00;94.00
48162;DHT22;33950;48.154;16.316;2022-09-09T02:00:45;18.10;94.20
48162;DHT22;33950;48.154;16.316;2022-09-09T02:03:35;18.20;94.10
48162;DHT22;33950;48.154;16.316;2022-09-09T02:06:27;18.30;94.10
48162;DHT22;33950;48.154;16.316;2022-09-09T02:09:19;18.20;93.90
48162;DHT22;33950;48.154;16.316;2022-09-09T02:12:12;18.10;94.10
48162;DHT22;33950;48.154;16.316;2022-09-09T02:15:03;18.10;94.20
48162;DHT22;33950;48.154;16.316;2022-09-09T02:17:52;18.10;94.40
48162;DHT22;33950;48.154;16.316;2022-09-09T02:20:43;18.10;94.40
48162;DHT22;33950;48.154;16.316;2022-09-09T02:23:30;18.20;94.40
48162;DHT22;33950;48.154;16.316;2022-09-09T02:26:19;18.20;94.20
48162;DHT22;33950;48.154;16.316;2022-09-09T02:29:09;18.30;94.30
48162;DHT22;33950;48.154;16.316;2022-09-09T02:32:00;18.30;94.40
48162;DHT22;33950;48.154;16.316;2022-09-09T02:34:52;18.30;94.20
48162;DHT22;33950;48.154;16.316;2022-09-09T02:37:42;18.30;94.20
48162;DHT22;33950;48.154;16.316;2022-09-09T02:40:31;18.20;94.00
48162;DHT22;33950;48.154;16.316;2022-09-09T02:43:18;18.00;94.10
48162;DHT22;33950;48.154;16.316;2022-09-09T02:46:12;17.80;94.30
48162;DHT22;33950;48.154;16.316;2022-09-09T02:49:08;17.70;94.60
48162;DHT22;33950;48.154;16.316;2022-09-09T02:52:01;17.70;94.30
48162;DHT22;33950;48.154;16.316;2022-09-09T02:54:50;17.60;94.20
48162;DHT22;33950;48.154;16.316;2022-09-09T02:57:38;17.70;94.20
48162;DHT22;33950;48.154;16.316;2022-09-09T03:00:26;17.80;94.00
48162;DHT22;33950;48.154;16.316;2022-09-09T03:03:13;17.90;93.80
48162;DHT22;33950;48.154;16.316;2022-09-09T03:05:59;17.90;93.70
48162;DHT22;33950;48.154;16.316;2022-09-09T03:08:47;18.10;93.70
48162;DHT22;33950;48.154;16.316;2022-09-09T03:11:35;18.10;93.50
48162;DHT22;33950;48.154;16.316;2022-09-09T03:14:21;17.90;93.80
48162;DHT22;33950;48.154;16.316;2022-09-09T03:17:10;17.90;93.80
48162;DHT22;33950;48.154;16.316;2022-09-09T03:19:57;17.90;94.00
48162;DHT22;33950;48.154;16.316;2022-09-09T03:22:44;18.00;94.10
48162;DHT22;33950;48.154;16.316;2022-09-09T03:25:32;18.10;94.20
48162;DHT22;33950;48.154;16.316;2022-09-09T03:28:19;18.20;94.30
48162;DHT22;33950;48.154;16.316;2022-09-09T03:31:06;18.20;94.30
48162;DHT22;33950;48.154;16.316;2022-09-09T03:33:56;18.30;94.30
48162;DHT22;33950;48.154;16.316;2022-09-09T03:36:43;18.30;94.30
48162;DHT22;33950;48.154;16.316;2022-09-09T03:39:30;18.30;94.20
48162;DHT22;33950;48.154;16.316;2022-09-09T03:42:17;18.40;94.20
48162;DHT22;33950;48.154;16.316;2022-09-09T03:45:08;18.40;94.30
48162;DHT22;33950;48.154;16.316;2022-09-09T03:47:55;18.30;94.20
48162;DHT22;33950;48.154;16.316;2022-09-09T03:50:49;18.40;94.20
48162;DHT22;33950;48.154;16.316;2022-09-09T03:53:36;18.40;94.40
48162;DHT22;33950;48.154;16.316;2022-09-09T03:56:23;18.40;94.00
48162;DHT22;33950;48.154;16.316;2022-09-09T03:59:11;18.30;93.80
48162;DHT22;33950;48.154;16.316;2022-09-09T04:01:57;18.20;94.00
48162;DHT22;33950;48.154;16.316;2022-09-09T04:04:44;18.20;93.70
48162;DHT22;33950;48.154;16.316;2022-09-09T04:07:31;18.10;93.80
48162;DHT22;33950;48.154;16.316;2022-09-09T04:10:18;17.90;93.90
48162;DHT22;33950;48.154;16.316;2022-09-09T04:13:04;17.70;94.10
48162;DHT22;33950;48.154;16.316;2022-09-09T04:15:52;17.60;94.40
48162;DHT22;33950;48.154;16.316;2022-09-09T04:18:39;17.50;94.50
48162;DHT22;33950;48.154;16.316;2022-09-09T04:21:25;17.40;94.60
48162;DHT22;33950;48.154;16.316;2022-09-09T04:24:11;17.40;94.80
48162;DHT22;33950;48.154;16.316;2022-09-09T04:26:57;17.30;95.00
48162;DHT22;33950;48.154;16.316;2022-09-09T04:29:43;17.20;95.00
48162;DHT22;33950;48.154;16.316;2022-09-09T04:32:32;17.20;95.10
48162;DHT22;33950;48.154;16.316;2022-09-09T04:35:18;17.10;95.10
48162;DHT22;33950;48.154;16.316;2022-09-09T04:38:05;17.00;95.30
48162;DHT22;33950;48.154;16.316;2022-09-09T04:40:54;17.00;95.50
48162;DHT22;33950;48.154;16.316;2022-09-09T04:43:40;17.20;95.50
48162;DHT22;33950;48.154;16.316;2022-09-09T04:46:26;17.30;95.30
48162;DHT22;33950;48.154;16.316;2022-09-09T04:49:14;17.40;95.20
48162;DHT22;33950;48.154;16.316;2022-09-09T04:52:00;17.50;95.20
48162;DHT22;33950;48.154;16.316;2022-09-09T04:54:46;17.50;95.10
48162;DHT22;33950;48.154;16.316;2022-09-09T04:57:34;17.60;95.00
48162;DHT22;33950;48.154;16.316;2022-09-09T05:00:20;17.70;95.10
48162;DHT22;33950;48.154;16.316;2022-09-09T05:03:07;17.80;94.80
48162;DHT22;33950;48.154;16.316;2022-09-09T05:06:02;17.80;94.80
48162;DHT22;33950;48.154;16.316;2022-09-09T05:08:50;17.70;94.70
48162;DHT22;33950;48.154;16.316;2022-09-09T05:11:36;17.70;94.80
48162;DHT22;33950;48.154;16.316;2022-09-09T05:14:22;17.80;94.80
48162;DHT22;33950;48.154;16.316;2022-09-09T05:17:08;17.80;94.70
48162;DHT22;33950;48.154;16.316;2022-09-09T05:19:54;17.70;94.70
48162;DHT22;33950;48.154;16.316;2022-09-09T05:22:42;17.70;94.80
48162;DHT22;33950;48.154;16.316;2022-09-09T05:25:28;17.80;94.80
48162;DHT22;33950;48.154;16.316;2022-09-09T05:28:14;17.70;94.80
48162;DHT22;33950;48.154;16.316;2022-09-09T05:31:02;17.80;94.90
48162;DHT22;33950;48.154;16.316;2022-09-09T05:33:53;17.90;94.80
48162;DHT22;33950;48.154;16.316;2022-09-09T05:36:39;18.00;94.70
48162;DHT22;33950;48.154;16.316;2022-09-09T05:39:27;18.00;94.60
48162;DHT22;33950;48.154;16.316;2022-09-09T05:42:13;17.80;94.60
48162;DHT22;33950;48.154;16.316;2022-09-09T05:44:59;17.70;94.80
48162;DHT22;33950;48.154;16.316;2022-09-09T05:47:51;17.50;94.90
48162;DHT22;33950;48.154;16.316;2022-09-09T05:50:38;17.50;95.20
48162;DHT22;33950;48.154;16.316;2022-09-09T05:53:25;17.40;95.10
48162;DHT22;33950;48.154;16.316;2022-09-09T05:56:14;17.50;95.30
48162;DHT22;33950;48.154;16.316;2022-09-09T05:59:01;17.60;95.30
48162;DHT22;33950;48.154;16.316;2022-09-09T06:01:47;17.80;95.30
48162;DHT22;33950;48.154;16.316;2022-09-09T06:04:35;17.80;95.10
48162;DHT22;33950;48.154;16.316;2022-09-09T06:07:21;17.60;95.10
48162;DHT22;33950;48.154;16.316;2022-09-09T06:10:10;17.60;95.20
48162;DHT22;33950;48.154;16.316;2022-09-09T06:12:57;17.50;95.20
48162;DHT22;33950;48.154;16.316;2022-09-09T06:15:49;17.50;95.40
48162;DHT22;33950;48.154;16.316;2022-09-09T06:18:35;17.50;95.50
48162;DHT22;33950;48.154;16.316;2022-09-09T06:21:26;17.50;95.50
48162;DHT22;33950;48.154;16.316;2022-09-09T06:24:12;17.50;95.80
48162;DHT22;33950;48.154;16.316;2022-09-09T06:27:03;17.60;95.60
48162;DHT22;33950;48.154;16.316;2022-09-09T06:29:50;17.60;95.80
48162;DHT22;33950;48.154;16.316;2022-09-09T06:32:37;17.70;95.90
48162;DHT22;33950;48.154;16.316;2022-09-09T06:35:23;17.90;95.90
48162;DHT22;33950;48.154;16.316;2022-09-09T06:38:09;18.10;96.00
48162;DHT22;33950;48.154;16.316;2022-09-09T06:40:57;18.30;95.90
48162;DHT22;33950;48.154;16.316;2022-09-09T06:43:44;18.50;95.80
48162;DHT22;33950;48.154;16.316;2022-09-09T06:46:31;18.60;95.70
48162;DHT22;33950;48.154;16.316;2022-09-09T06:49:18;18.70;95.70
48162;DHT22;33950;48.154;16.316;2022-09-09T06:52:05;18.80;95.60
48162;DHT22;33950;48.154;16.316;2022-09-09T06:54:51;18.90;95.70
48162;DHT22;33950;48.154;16.316;2022-09-09T06:57:37;19.00;95.90
48162;DHT22;33950;48.154;16.316;2022-09-09T07:00:23;19.10;95.50
48162;DHT22;33950;48.154;16.316;2022-09-09T07:03:11;19.10;95.40
48162;DHT22;33950;48.154;16.316;2022-09-09T07:05:58;19.20;95.30
48162;DHT22;33950;48.154;16.316;2022-09-09T07:08:48;19.30;95.30
48162;DHT22;33950;48.154;16.316;2022-09-09T07:11:38;19.40;95.50
48162;DHT22;33950;48.154;16.316;2022-09-09T07:14:24;19.40;95.40
48162;DHT22;33950;48.154;16.316;2022-09-09T07:17:10;19.40;95.40
48162;DHT22;33950;48.154;16.316;2022-09-09T07:19:58;19.50;95.30
48162;DHT22;33950;48.154;16.316;2022-09-09T07:22:44;19.50;95.40
48162;DHT22;33950;48.154;16.316;2022-09-09T07:25:30;19.50;95.50
48162;DHT22;33950;48.154;16.316;2022-09-09T07:28:16;19.50;95.60
48162;DHT22;33950;48.154;16.316;2022-09-09T07:31:03;19.50;95.40
48162;DHT22;33950;48.154;16.316;2022-09-09T07:33:50;19.60;95.50
48162;DHT22;33950;48.154;16.316;2022-09-09T07:36:39;19.50;95.50
48162;DHT22;33950;48.154;16.316;2022-09-09T07:39:25;19.60;95.60
48162;DHT22;33950;48.154;16.316;2022-09-09T07:42:11;19.60;95.80
48162;DHT22;33950;48.154;16.316;2022-09-09T07:44:58;19.60;95.50
48162;DHT22;33950;48.154;16.316;2022-09-09T07:47:45;19.70;95.60
48162;DHT22;33950;48.154;16.316;2022-09-09T07:50:31;19.70;95.20
48162;DHT22;33950;48.154;16.316;2022-09-09T07:53:18;19.80;94.60
48162;DHT22;33950;48.154;16.316;2022-09-09T07:56:07;19.80;94.40
48162;DHT22;33950;48.154;16.316;2022-09-09T07:58:54;19.80;94.20
48162;DHT22;33950;48.154;16.316;2022-09-09T08:01:43;19.90;94.20
48162;DHT22;33950;48.154;16.316;2022-09-09T08:04:29;20.00;94.30
48162;DHT22;33950;48.154;16.316;2022-09-09T08:07:16;20.10;94.50
48162;DHT22;33950;48.154;16.316;2022-09-09T08:10:04;20.20;94.80
48162;DHT22;33950;48.154;16.316;2022-09-09T08:12:50;20.30;94.90
48162;DHT22;33950;48.154;16.316;2022-09-09T08:15:36;20.40;94.20
48162;DHT22;33950;48.154;16.316;2022-09-09T08:18:22;20.50;94.00
48162;DHT22;33950;48.154;16.316;2022-09-09T08:21:11;20.60;94.30
48162;DHT22;33950;48.154;16.316;2022-09-09T08:23:59;20.70;94.00
48162;DHT22;33950;48.154;16.316;2022-09-09T08:26:48;20.80;94.00
48162;DHT22;33950;48.154;16.316;2022-09-09T08:29:35;20.80;93.60
48162;DHT22;33950;48.154;16.316;2022-09-09T08:32:21;20.80;93.20
48162;DHT22;33950;48.154;16.316;2022-09-09T08:35:08;20.80;93.90
48162;DHT22;33950;48.154;16.316;2022-09-09T08:37:54;20.90;93.60
48162;DHT22;33950;48.154;16.316;2022-09-09T08:40:44;20.80;93.70
48162;DHT22;33950;48.154;16.316;2022-09-09T08:43:36;20.80;93.70
48162;DHT22;33950;48.154;16.316;2022-09-09T08:46:26;20.80;93.30
48162;DHT22;33950;48.154;16.316;2022-09-09T08:49:25;20.80;93.10
48162;DHT22;33950;48.154;16.316;2022-09-09T08:52:23;20.80;93.20
48162;DHT22;33950;48.154;16.316;2022-09-09T08:55:21;20.80;93.60
48162;DHT22;33950;48.154;16.316;2022-09-09T08:58:13;20.90;93.80
48162;DHT22;33950;48.154;16.316;2022-09-09T09:01:20;20.90;94.30
48162;DHT22;33950;48.154;16.316;2022-09-09T09:04:14;21.00;94.50
48162;DHT22;33950;48.154;16.316;2022-09-09T09:07:14;21.00;94.20
48162;DHT22;33950;48.154;16.316;2022-09-09T09:10:10;21.00;93.50
48162;DHT22;33950;48.154;16.316;2022-09-09T09:13:02;21.10;93.90
48162;DHT22;33950;48.154;16.316;2022-09-09T09:15:52;21.20;93.90
48162;DHT22;33950;48.154;16.316;2022-09-09T09:18:41;21.20;93.30
48162;DHT22;33950;48.154;16.316;2022-09-09T09:21:36;21.30;93.60
48162;DHT22;33950;48.154;16.316;2022-09-09T09:24:29;21.30;93.30
48162;DHT22;33950;48.154;16.316;2022-09-09T09:27:24;21.40;92.80
48162;DHT22;33950;48.154;16.316;2022-09-09T09:30:15;21.50;93.60
48162;DHT22;33950;48.154;16.316;2022-09-09T09:33:05;21.60;93.30
48162;DHT22;33950;48.154;16.316;2022-09-09T09:35:55;21.80;93.70
48162;DHT22;33950;48.154;16.316;2022-09-09T09:38:53;21.90;93.50
48162;DHT22;33950;48.154;16.316;2022-09-09T09:41:41;22.00;93.70
48162;DHT22;33950;48.154;16.316;2022-09-09T09:44:30;22.00;92.20
48162;DHT22;33950;48.154;16.316;2022-09-09T09:47:18;22.10;92.40
48162;DHT22;33950;48.154;16.316;2022-09-09T09:50:16;22.10;91.30
48162;DHT22;33950;48.154;16.316;2022-09-09T09:53:04;22.20;91.20
48162;DHT22;33950;48.154;16.316;2022-09-09T09:55:56;22.30;91.00
48162;DHT22;33950;48.154;16.316;2022-09-09T09:58:50;22.40;91.50
48162;DHT22;33950;48.154;16.316;2022-09-09T10:01:36;22.50;90.80
48162;DHT22;33950;48.154;16.316;2022-09-09T10:04:23;22.60;91.50
48162;DHT22;33950;48.154;16.316;2022-09-09T10:07:16;22.60;91.40
48162;DHT22;33950;48.154;16.316;2022-09-09T10:10:05;22.70;91.90
48162;DHT22;33950;48.154;16.316;2022-09-09T10:12:59;22.70;92.20
48162;DHT22;33950;48.154;16.316;2022-09-09T10:15:55;22.80;91.70
48162;DHT22;33950;48.154;16.316;2022-09-09T10:18:59;22.90;91.70
48162;DHT22;33950;48.154;16.316;2022-09-09T10:21:57;22.90;91.20
48162;DHT22;33950;48.154;16.316;2022-09-09T10:25:13;23.20;90.90
48162;DHT22;33950;48.154;16.316;2022-09-09T10:28:26;23.30;90.20
48162;DHT22;33950;48.154;16.316;2022-09-09T10:31:21;23.40;91.90
48162;DHT22;33950;48.154;16.316;2022-09-09T10:34:17;23.40;90.40
48162;DHT22;33950;48.154;16.316;2022-09-09T10:37:15;23.40;89.70
48162;DHT22;33950;48.154;16.316;2022-09-09T10:40:30;23.50;88.70
48162;DHT22;33950;48.154;16.316;2022-09-09T10:43:29;23.60;89.40
48162;DHT22;33950;48.154;16.316;2022-09-09T10:46:25;23.80;89.20
48162;DHT22;33950;48.154;16.316;2022-09-09T10:49:22;24.10;89.40
48162;DHT22;33950;48.154;16.316;2022-09-09T10:52:19;24.70;88.40
48162;DHT22;33950;48.154;16.316;2022-09-09T10:55:11;24.90;88.20
48162;DHT22;33950;48.154;16.316;2022-09-09T10:58:03;24.80;87.70
48162;DHT22;33950;48.154;16.316;2022-09-09T11:00:53;24.60;87.20
48162;DHT22;33950;48.154;16.316;2022-09-09T11:03:40;24.40;86.30
48162;DHT22;33950;48.154;16.316;2022-09-09T11:06:31;24.30;87.50
48162;DHT22;33950;48.154;16.316;2022-09-09T11:09:23;24.30;86.90
48162;DHT22;33950;48.154;16.316;2022-09-09T11:12:12;24.30;88.10
48162;DHT22;33950;48.154;16.316;2022-09-09T11:15:04;24.20;86.20
48162;DHT22;33950;48.154;16.316;2022-09-09T11:17:55;24.10;86.80
48162;DHT22;33950;48.154;16.316;2022-09-09T11:20:43;24.20;88.30
48162;DHT22;33950;48.154;16.316;2022-09-09T11:23:39;24.30;86.90
48162;DHT22;33950;48.154;16.316;2022-09-09T11:26:33;24.40;87.60
48162;DHT22;33950;48.154;16.316;2022-09-09T11:30:11;24.50;87.60
48162;DHT22;33950;48.154;16.316;2022-09-09T11:33:20;24.50;88.80
48162;DHT22;33950;48.154;16.316;2022-09-09T11:36:30;24.60;87.80
48162;DHT22;33950;48.154;16.316;2022-09-09T11:39:38;24.60;87.10
48162;DHT22;33950;48.154;16.316;2022-09-09T11:42:31;24.70;87.70
48162;DHT22;33950;48.154;16.316;2022-09-09T11:45:23;24.80;87.20
48162;DHT22;33950;48.154;16.316;2022-09-09T11:48:25;24.90;87.70
48162;DHT22;33950;48.154;16.316;2022-09-09T11:51:13;25.10;86.90
48162;DHT22;33950;48.154;16.316;2022-09-09T11:54:28;25.50;86.50
48162;DHT22;33950;48.154;16.316;2022-09-09T11:57:24;25.60;87.30
48162;DHT22;33950;48.154;16.316;2022-09-09T12:00:34;25.70;86.10
48162;DHT22;33950;48.154;16.316;2022-09-09T12:03:41;25.70;86.90
48162;DHT22;33950;48.154;16.316;2022-09-09T12:06:31;25.70;85.40
48162;DHT22;33950;48.154;16.316;2022-09-09T12:09:31;25.70;86.20
48162;DHT22;33950;48.154;16.316;2022-09-09T12:12:24;25.80;86.90
48162;DHT22;33950;48.154;16.316;2022-09-09T12:15:28;26.10;85.70
48162;DHT22;33950;48.154;16.316;2022-09-09T12:18:22;26.50;85.30
48162;DHT22;33950;48.154;16.316;2022-09-09T12:21:16;27.00;83.50
48162;DHT22;33950;48.154;16.316;2022-09-09T12:24:07;27.30;82.30
48162;DHT22;33950;48.154;16.316;2022-09-09T12:27:03;27.60;82.30
48162;DHT22;33950;48.154;16.316;2022-09-09T12:29:57;27.70;80.80
48162;DHT22;33950;48.154;16.316;2022-09-09T12:32:48;27.50;80.50
48162;DHT22;33950;48.154;16.316;2022-09-09T12:35:51;27.20;81.30
48162;DHT22;33950;48.154;16.316;2022-09-09T12:38:43;26.90;82.50
48162;DHT22;33950;48.154;16.316;2022-09-09T12:41:29;26.60;83.00
48162;DHT22;33950;48.154;16.316;2022-09-09T12:44:15;26.30;84.10
48162;DHT22;33950;48.154;16.316;2022-09-09T12:47:03;26.10;84.10
48162;DHT22;33950;48.154;16.316;2022-09-09T12:49:50;25.90;84.20
48162;DHT22;33950;48.154;16.316;2022-09-09T12:52:38;25.70;85.60
48162;DHT22;33950;48.154;16.316;2022-09-09T12:55:28;25.60;86.70
48162;DHT22;33950;48.154;16.316;2022-09-09T12:58:17;25.40;86.00
48162;DHT22;33950;48.154;16.316;2022-09-09T13:01:05;25.40;84.30
48162;DHT22;33950;48.154;16.316;2022-09-09T13:03:52;25.20;86.60
48162;DHT22;33950;48.154;16.316;2022-09-09T13:06:38;25.10;87.10
48162;DHT22;33950;48.154;16.316;2022-09-09T13:09:26;24.90;88.80
48162;DHT22;33950;48.154;16.316;2022-09-09T13:12:16;24.80;86.50
48162;DHT22;33950;48.154;16.316;2022-09-09T13:15:04;24.60;86.40
48162;DHT22;33950;48.154;16.316;2022-09-09T13:17:58;24.60;88.40
48162;DHT22;33950;48.154;16.316;2022-09-09T13:20:47;24.50;87.00
48162;DHT22;33950;48.154;16.316;2022-09-09T13:23:35;24.40;87.10
48162;DHT22;33950;48.154;16.316;2022-09-09T13:26:25;24.30;86.50
48162;DHT22;33950;48.154;16.316;2022-09-09T13:29:17;24.30;88.00
48162;DHT22;33950;48.154;16.316;2022-09-09T13:32:04;24.20;89.00
48162;DHT22;33950;48.154;16.316;2022-09-09T13:34:55;24.10;88.50
48162;DHT22;33950;48.154;16.316;2022-09-09T13:37:42;24.00;87.70
48162;DHT22;33950;48.154;16.316;2022-09-09T13:40:28;23.90;88.30
48162;DHT22;33950;48.154;16.316;2022-09-09T13:43:20;23.80;89.50
48162;DHT22;33950;48.154;16.316;2022-09-09T13:46:31;23.70;89.00
48162;DHT22;33950;48.154;16.316;2022-09-09T13:49:21;23.70;87.20
48162;DHT22;33950;48.154;16.316;2022-09-09T13:52:11;23.60;89.50
48162;DHT22;33950;48.154;16.316;2022-09-09T13:54:59;23.50;88.50
48162;DHT22;33950;48.154;16.316;2022-09-09T13:57:52;23.50;88.80
48162;DHT22;33950;48.154;16.316;2022-09-09T14:00:40;23.40;88.50
48162;DHT22;33950;48.154;16.316;2022-09-09T14:03:26;23.40;88.80
48162;DHT22;33950;48.154;16.316;2022-09-09T14:06:12;23.40;88.90
48162;DHT22;33950;48.154;16.316;2022-09-09T14:08:59;23.30;89.20
48162;DHT22;33950;48.154;16.316;2022-09-09T14:11:45;23.20;87.20
48162;DHT22;33950;48.154;16.316;2022-09-09T14:14:32;23.20;85.50
48162;DHT22;33950;48.154;16.316;2022-09-09T14:17:19;23.20;83.60
48162;DHT22;33950;48.154;16.316;2022-09-09T14:20:07;22.90;87.20
48162;DHT22;33950;48.154;16.316;2022-09-09T14:22:55;22.80;88.70
48162;DHT22;33950;48.154;16.316;2022-09-09T14:25:43;22.60;89.80
48162;DHT22;33950;48.154;16.316;2022-09-09T14:28:29;22.60;90.30
48162;DHT22;33950;48.154;16.316;2022-09-09T14:31:16;22.50;90.30
48162;DHT22;33950;48.154;16.316;2022-09-09T14:34:06;22.40;90.40
48162;DHT22;33950;48.154;16.316;2022-09-09T14:36:53;22.30;90.60
48162;DHT22;33950;48.154;16.316;2022-09-09T14:39:39;22.20;90.60
48162;DHT22;33950;48.154;16.316;2022-09-09T14:42:25;22.10;91.00
48162;DHT22;33950;48.154;16.316;2022-09-09T14:45:12;22.10;91.30
48162;DHT22;33950;48.154;16.316;2022-09-09T14:47:58;22.10;91.50
48162;DHT22;33950;48.154;16.316;2022-09-09T14:50:46;22.00;91.90
48162;DHT22;33950;48.154;16.316;2022-09-09T14:53:32;21.90;92.30
48162;DHT22;33950;48.154;16.316;2022-09-09T14:56:20;21.80;92.80
48162;DHT22;33950;48.154;16.316;2022-09-09T14:59:07;21.70;92.90
48162;DHT22;33950;48.154;16.316;2022-09-09T15:01:53;21.70;93.00
48162;DHT22;33950;48.154;16.316;2022-09-09T15:04:40;21.70;93.10
48162;DHT22;33950;48.154;16.316;2022-09-09T15:07:27;21.70;93.20
48162;DHT22;33950;48.154;16.316;2022-09-09T15:10:14;21.50;93.50
48162;DHT22;33950;48.154;16.316;2022-09-09T15:13:00;21.50;93.30
48162;DHT22;33950;48.154;16.316;2022-09-09T15:15:46;21.40;93.30
48162;DHT22;33950;48.154;16.316;2022-09-09T15:18:33;21.40;92.90
48162;DHT22;33950;48.154;16.316;2022-09-09T15:21:21;21.40;92.80
48162;DHT22;33950;48.154;16.316;2022-09-09T15:24:08;21.40;92.70
48162;DHT22;33950;48.154;16.316;2022-09-09T15:26:55;21.50;92.50
48162;DHT22;33950;48.154;16.316;2022-09-09T15:29:42;21.50;92.50
48162;DHT22;33950;48.154;16.316;2022-09-09T15:32:30;21.50;92.70
48162;DHT22;33950;48.154;16.316;2022-09-09T15:35:16;21.40;92.70
48162;DHT22;33950;48.154;16.316;2022-09-09T15:38:02;21.40;92.60
48162;DHT22;33950;48.154;16.316;2022-09-09T15:40:55;21.30;92.70
48162;DHT22;33950;48.154;16.316;2022-09-09T15:43:44;21.20;92.80
48162;DHT22;33950;48.154;16.316;2022-09-09T15:46:33;21.10;93.00
48162;DHT22;33950;48.154;16.316;2022-09-09T15:49:23;21.00;93.10
48162;DHT22;33950;48.154;16.316;2022-09-09T15:52:11;20.80;93.30
48162;DHT22;33950;48.154;16.316;2022-09-09T15:54:57;20.60;93.50
48162;DHT22;33950;48.154;16.316;2022-09-09T15:57:45;20.50;93.50
48162;DHT22;33950;48.154;16.316;2022-09-09T16:00:31;20.50;93.60
48162;DHT22;33950;48.154;16.316;2022-09-09T16:03:17;20.60;93.50
48162;DHT22;33950;48.154;16.316;2022-09-09T16:06:04;20.70;93.30
48162;DHT22;33950;48.154;16.316;2022-09-09T16:08:52;20.70;93.20
48162;DHT22;33950;48.154;16.316;2022-09-09T16:11:38;20.60;93.20
48162;DHT22;33950;48.154;16.316;2022-09-09T16:14:26;20.50;93.30
48162;DHT22;33950;48.154;16.316;2022-09-09T16:17:13;20.40;93.50
48162;DHT22;33950;48.154;16.316;2022-09-09T16:20:00;20.20;93.60
48162;DHT22;33950;48.154;16.316;2022-09-09T16:22:46;20.20;93.80
48162;DHT22;33950;48.154;16.316;2022-09-09T16:25:32;20.10;94.00
48162;DHT22;33950;48.154;16.316;2022-09-09T16:28:18;20.20;93.90
48162;DHT22;33950;48.154;16.316;2022-09-09T16:31:06;20.30;93.90
48162;DHT22;33950;48.154;16.316;2022-09-09T16:33:52;20.40;93.90
48162;DHT22;33950;48.154;16.316;2022-09-09T16:36:39;20.60;93.80
48162;DHT22;33950;48.154;16.316;2022-09-09T16:39:26;20.50;93.90
48162;DHT22;33950;48.154;16.316;2022-09-09T16:42:12;20.40;94.00
48162;DHT22;33950;48.154;16.316;2022-09-09T16:44:58;20.30;94.10
48162;DHT22;33950;48.154;16.316;2022-09-09T16:47:46;20.20;94.20
48162;DHT22;33950;48.154;16.316;2022-09-09T16:50:32;20.10;94.30
48162;DHT22;33950;48.154;16.316;2022-09-09T16:53:18;20.00;94.20
48162;DHT22;33950;48.154;16.316;2022-09-09T16:56:05;19.90;94.20
48162;DHT22;33950;48.154;16.316;2022-09-09T16:58:53;19.70;94.30
48162;DHT22;33950;48.154;16.316;2022-09-09T17:01:42;19.70;94.40
48162;DHT22;33950;48.154;16.316;2022-09-09T17:04:30;19.80;94.40
48162;DHT22;33950;48.154;16.316;2022-09-09T17:07:16;19.80;94.40
48162;DHT22;33950;48.154;16.316;2022-09-09T17:10:05;19.90;94.40
48162;DHT22;33950;48.154;16.316;2022-09-09T17:12:54;19.60;94.80
48162;DHT22;33950;48.154;16.316;2022-09-09T17:15:41;19.50;95.50
48162;DHT22;33950;48.154;16.316;2022-09-09T17:18:28;19.30;96.10
48162;DHT22;33950;48.154;16.316;2022-09-09T17:21:20;19.30;96.40
48162;DHT22;33950;48.154;16.316;2022-09-09T17:24:06;19.20;96.70
48162;DHT22;33950;48.154;16.316;2022-09-09T17:26:53;19.00;97.40
48162;DHT22;33950;48.154;16.316;2022-09-09T17:29:40;18.70;98.30
48162;DHT22;33950;48.154;16.316;2022-09-09T17:32:26;18.60;99.10
48162;DHT22;33950;48.154;16.316;2022-09-09T17:35:12;18.40;99.80
48162;DHT22;33950;48.154;16.316;2022-09-09T17:37:59;18.30;99.90